COOK1: Arkansas River Nr Coolidge, KS

                                SHEF ID:       COOK1     ARKANSAS R NR COOLIDGE, KS
STATION TYPE:
Regulating: Stage = 8.00, Flow = 2050

PRECIP STAGE STAGE(2) RIV-FLOW WTR-TEMP CONDUCT BAT-LOAD
in ft ft cfs F umho/cm volt
Ccp-Rev Ccp-Rev Ccp-Rev Ccp-Rev Ccp-Rev Ccp-Rev Ccp-Rev
(America/Chicago)
06/26 00:00 0.00 2.59 2.68 62 80.24 5717 12.95
06/26 01:00 0.00 2.59 2.68 62 79.11 5672 12.95
06/26 02:00 0.00 2.57 2.67 60 77.79 5674 12.89
06/26 03:00 0.00 2.57 2.65 60 76.50 5679 12.89
06/26 04:00 0.00 2.57 2.62 60 75.25 5672 12.89
06/26 05:00 0.00 2.57 2.62 60 74.16 5675 12.83
06/26 06:00 0.00 2.55 2.64 58 73.02 5688 12.83
06/26 07:00 0.00 2.56 2.65 59 72.03 5715 12.83
06/26 08:00 0.00 2.55 2.66 58 71.44 5758 12.89
06/26 09:00 0.00 2.54 2.67 57 71.91 5771 13.00
06/26 10:00 0.00 2.76 2.83 78 72.73 5648 13.30
06/26 11:00 0.00 2.83 2.93 86 73.99 5589 13.53
06/26 12:00 0.00 2.82 2.92 85 75.40 5575 13.71
06/26 13:00 0.00 2.83 2.94 86 76.55 5573 13.65
06/26 14:00 0.00 2.83 2.95 86 78.04 5585 13.83
06/26 15:00 0.00 2.83 2.97 86 80.37 5582 13.65
06/26 16:00 0.00 2.84 2.96 87 81.93 5580 13.53
06/26 17:00 0.00 2.83 2.94 86 82.56 5578 13.42
06/26 18:00 0.00 2.84 2.95 87 82.65 5580 13.30
06/26 19:00 0.00 2.83 2.93 86 82.06 5576 13.18
06/26 20:00 0.00 2.82 2.92 85 81.09 5562 13.18
06/26 21:00 0.00 2.82 2.93 85 79.81 5589 13.07
06/26 22:00 0.00 2.82 2.93 85 78.71 5629 13.00
06/26 23:00 ---- ---- ---- ---- ---- ---- ----
Data processed at Thu 27Jun2024 04:30 GMT

Parsing this webpage?

Checkout our new Data API! CWMSDataAPI (CDA)

Timeseries IDs (TSIDs)

TSIDs used from left to right in the data table
COOL.Precip-Inc.Total.1Hour.1Hour.Ccp-Rev
COOL.Stage.Inst.1Hour.0.Ccp-Rev
COOL.Stage-Alt.Inst.1Hour.0.Ccp-Rev
COOL.Flow.Inst.1Hour.0.Ccp-Rev
COOL.Temp-Water.Inst.1Hour.0.Ccp-Rev
COOL.Cond.Inst.1Hour.0.Ccp-Rev
COOL.Volt-Battery Load.Inst.1Hour.0.Ccp-Rev

                            

All information presented herein is the property of the government of the United States of America and may be revised or deleted at any time without prior notice. Dissemination of this information without the expressed written consent of the Public Affairs Office, Tulsa District U.S. Army Corps of Engineers is strictly prohibited. These data are gathered electronically and, as presented, have NOT undergone any form of quality control. These data are NOT guaranteed to be valid or correct.